ARRIS11 KEDW-NID
Flight info
| Callsign | ARRIS11 |
|---|---|
| Flight time | N/A |
| Altitude | 25000 |
| Route | NID |
| Aircraft | B762/H-VGDW/C |
Departure
| Time | 2026-05-06 03:44 |
|---|---|
| Airport | Edwards Air Force Base (KEDW) |
Arrival
| Time | N/A |
|---|---|
| Airport | NID |
| Time | Latitude | Longitude | Altitude | Speed | Heading |
|---|---|---|---|---|---|
| 2026-05-06 03:10 | 34.92722 | -117.88612 | 2300 ft | 0 kts | 147° |
| 2026-05-06 03:34 | 34.92702 | -117.88596 | 2300 ft | 5 kts | 147° |
| 2026-05-06 03:34 | 34.92693 | -117.88577 | 2299 ft | 2 kts | 95° |
| 2026-05-06 03:34 | 34.92698 | -117.88522 | 2298 ft | 11 kts | 79° |
| 2026-05-06 03:34 | 34.92688 | -117.88444 | 2297 ft | 10 kts | 147° |
| 2026-05-06 03:35 | 34.92607 | -117.88420 | 2298 ft | 13 kts | 171° |
| 2026-05-06 03:35 | 34.92504 | -117.88400 | 2298 ft | 16 kts | 170° |
| 2026-05-06 03:35 | 34.92377 | -117.88373 | 2299 ft | 20 kts | 170° |
| 2026-05-06 03:35 | 34.92229 | -117.88341 | 2301 ft | 21 kts | 165° |
| 2026-05-06 03:36 | 34.92149 | -117.88184 | 2299 ft | 25 kts | 105° |
| 2026-05-06 03:36 | 34.92096 | -117.87955 | 2299 ft | 30 kts | 105° |
| 2026-05-06 03:36 | 34.92036 | -117.87698 | 2295 ft | 29 kts | 106° |
| 2026-05-06 03:36 | 34.91989 | -117.87492 | 2295 ft | 18 kts | 105° |
| 2026-05-06 03:37 | 34.91975 | -117.87425 | 2295 ft | 2 kts | 105° |
| 2026-05-06 03:39 | 34.91954 | -117.87336 | 2295 ft | 23 kts | 105° |
| 2026-05-06 03:40 | 34.91905 | -117.87127 | 2292 ft | 25 kts | 106° |
| 2026-05-06 03:40 | 34.91859 | -117.86928 | 2290 ft | 23 kts | 106° |
| 2026-05-06 03:40 | 34.91815 | -117.86743 | 2289 ft | 21 kts | 105° |
| 2026-05-06 03:40 | 34.91779 | -117.86584 | 2288 ft | 18 kts | 105° |
| 2026-05-06 03:41 | 34.91749 | -117.86453 | 2286 ft | 10 kts | 107° |
| 2026-05-06 03:41 | 34.91732 | -117.86382 | 2285 ft | 5 kts | 107° |
| 2026-05-06 03:41 | 34.91724 | -117.86356 | 2285 ft | 0 kts | 111° |
| 2026-05-06 03:42 | 34.91695 | -117.86318 | 2285 ft | 13 kts | 141° |
| 2026-05-06 03:42 | 34.91626 | -117.86285 | 2285 ft | 9 kts | 187° |
| 2026-05-06 03:42 | 34.91589 | -117.86320 | 2285 ft | 5 kts | 238° |
| 2026-05-06 03:43 | 34.91537 | -117.86424 | 2287 ft | 36 kts | 238° |
| 2026-05-06 03:43 | 34.91295 | -117.86900 | 2291 ft | 95 kts | 238° |
| 2026-05-06 03:43 | 34.90842 | -117.87786 | 2298 ft | 147 kts | 238° |
| 2026-05-06 03:43 | 34.90218 | -117.89000 | 2436 ft | 185 kts | 240° |
| 2026-05-06 03:44 | 34.89510 | -117.90349 | 3151 ft | 192 kts | 239° |
| 2026-05-06 03:44 | 34.88799 | -117.91677 | 3827 ft | 192 kts | 239° |
| 2026-05-06 03:44 | 34.88036 | -117.93112 | 4066 ft | 214 kts | 239° |
| 2026-05-06 03:44 | 34.87202 | -117.94688 | 4540 ft | 228 kts | 239° |
| 2026-05-06 03:45 | 34.86323 | -117.96354 | 5001 ft | 243 kts | 239° |
| 2026-05-06 03:45 | 34.85395 | -117.98116 | 5737 ft | 248 kts | 239° |
| 2026-05-06 03:45 | 34.84460 | -117.99893 | 6458 ft | 255 kts | 239° |
| 2026-05-06 03:45 | 34.83622 | -118.01787 | 7139 ft | 261 kts | 256° |
| 2026-05-06 03:46 | 34.83545 | -118.03969 | 7825 ft | 264 kts | 287° |
| 2026-05-06 03:46 | 34.84378 | -118.05917 | 8541 ft | 267 kts | 316° |
| 2026-05-06 03:46 | 34.85929 | -118.07189 | 9086 ft | 277 kts | 345° |
| 2026-05-06 03:46 | 34.87814 | -118.07346 | 10098 ft | 271 kts | 14° |
| 2026-05-06 03:47 | 34.89532 | -118.06420 | 10834 ft | 282 kts | 38° |
| 2026-05-06 03:47 | 34.90951 | -118.04672 | 11431 ft | 300 kts | 48° |
| 2026-05-06 03:47 | 34.92438 | -118.02796 | 11952 ft | 318 kts | 39° |
| 2026-05-06 03:47 | 34.94304 | -118.01228 | 12460 ft | 338 kts | 30° |
| 2026-05-06 03:48 | 34.96460 | -117.99878 | 12981 ft | 357 kts | 25° |
| 2026-05-06 03:48 | 34.98779 | -117.98659 | 13483 ft | 377 kts | 22° |
| 2026-05-06 03:48 | 35.01236 | -117.97490 | 14498 ft | 381 kts | 21° |
| 2026-05-06 03:48 | 35.03717 | -117.96366 | 15466 ft | 386 kts | 20° |
| 2026-05-06 03:49 | 35.06269 | -117.95254 | 16416 ft | 392 kts | 20° |
| 2026-05-06 03:49 | 35.08821 | -117.94166 | 17469 ft | 394 kts | 20° |
| 2026-05-06 03:49 | 35.11439 | -117.93059 | 18381 ft | 401 kts | 20° |
| 2026-05-06 03:49 | 35.14089 | -117.91948 | 19391 ft | 404 kts | 20° |
| 2026-05-06 03:50 | 35.16737 | -117.90842 | 20393 ft | 407 kts | 21° |
| 2026-05-06 03:50 | 35.19430 | -117.89720 | 21440 ft | 408 kts | 21° |
| 2026-05-06 03:50 | 35.22117 | -117.88599 | 22316 ft | 412 kts | 21° |
| 2026-05-06 03:50 | 35.24818 | -117.87475 | 23293 ft | 414 kts | 21° |
| 2026-05-06 03:51 | 35.27556 | -117.86334 | 24047 ft | 420 kts | 22° |
| 2026-05-06 03:51 | 35.30302 | -117.85189 | 24947 ft | 420 kts | 22° |
| 2026-05-06 03:51 | 35.33106 | -117.84018 | 24926 ft | 427 kts | 22° |
| 2026-05-06 03:51 | 35.35923 | -117.82842 | 25000 ft | 435 kts | 22° |
| 2026-05-06 03:52 | 35.38838 | -117.81624 | 24962 ft | 444 kts | 22° |
| 2026-05-06 03:52 | 35.41733 | -117.80415 | 25015 ft | 443 kts | 22° |
| 2026-05-06 03:52 | 35.44659 | -117.79191 | 25002 ft | 443 kts | 22° |
| 2026-05-06 03:52 | 35.47584 | -117.77969 | 24966 ft | 443 kts | 22° |
| 2026-05-06 03:53 | 35.50508 | -117.76743 | 24954 ft | 443 kts | 22° |
| 2026-05-06 03:53 | 35.53427 | -117.75520 | 24965 ft | 442 kts | 22° |
| 2026-05-06 03:53 | 35.56392 | -117.74451 | 24935 ft | 445 kts | 15° |
| 2026-05-06 03:53 | 35.59466 | -117.73838 | 24934 ft | 449 kts | 13° |
| 2026-05-06 03:54 | 35.62523 | -117.73172 | 24929 ft | 449 kts | 14° |
| 2026-05-06 03:54 | 35.65559 | -117.72495 | 24936 ft | 444 kts | 14° |
| 2026-05-06 03:54 | 35.68639 | -117.71777 | 24938 ft | 446 kts | 15° |
| 2026-05-06 03:54 | 35.71660 | -117.71065 | 24931 ft | 443 kts | 15° |
| 2026-05-06 03:55 | 35.74692 | -117.70340 | 24933 ft | 442 kts | 15° |
| 2026-05-06 03:55 | 35.77692 | -117.69614 | 24940 ft | 446 kts | 15° |
| 2026-05-06 03:55 | 35.80755 | -117.68870 | 24919 ft | 447 kts | 15° |
| 2026-05-06 03:55 | 35.83793 | -117.68130 | 24933 ft | 444 kts | 15° |
| 2026-05-06 03:56 | 35.86816 | -117.67390 | 24960 ft | 444 kts | 15° |
| 2026-05-06 03:56 | 35.89887 | -117.66639 | 24971 ft | 447 kts | 15° |
| 2026-05-06 03:56 | 35.92921 | -117.65891 | 25010 ft | 446 kts | 15° |
| 2026-05-06 03:56 | 35.95937 | -117.65151 | 24994 ft | 443 kts | 15° |
| 2026-05-06 03:57 | 35.98975 | -117.64404 | 25009 ft | 444 kts | 15° |
| 2026-05-06 03:57 | 36.02014 | -117.63654 | 25029 ft | 446 kts | 15° |
| 2026-05-06 03:57 | 36.05065 | -117.62901 | 25037 ft | 446 kts | 15° |
| 2026-05-06 03:57 | 36.08109 | -117.62151 | 25029 ft | 447 kts | 15° |
| 2026-05-06 03:58 | 36.11137 | -117.61401 | 25009 ft | 445 kts | 15° |
| 2026-05-06 03:58 | 36.14191 | -117.60648 | 25035 ft | 444 kts | 15° |
| 2026-05-06 03:58 | 36.17215 | -117.59896 | 25051 ft | 443 kts | 15° |
| 2026-05-06 03:58 | 36.20249 | -117.59146 | 25038 ft | 445 kts | 15° |
| 2026-05-06 03:59 | 36.23290 | -117.58391 | 25048 ft | 447 kts | 14° |
| 2026-05-06 03:59 | 36.26371 | -117.57628 | 25045 ft | 445 kts | 15° |
| 2026-05-06 03:59 | 36.29384 | -117.56880 | 25011 ft | 443 kts | 15° |
| 2026-05-06 03:59 | 36.32408 | -117.56129 | 25042 ft | 445 kts | 14° |
| 2026-05-06 04:00 | 36.35510 | -117.55638 | 25039 ft | 453 kts | 6° |
| 2026-05-06 04:00 | 36.38679 | -117.55801 | 25021 ft | 456 kts | 358° |
| 2026-05-06 04:00 | 36.41725 | -117.56602 | 25038 ft | 449 kts | 348° |
| 2026-05-06 04:00 | 36.44658 | -117.58048 | 25026 ft | 459 kts | 339° |
| 2026-05-06 04:01 | 36.47339 | -117.60062 | 25021 ft | 451 kts | 330° |
| 2026-05-06 04:01 | 36.49683 | -117.62602 | 25035 ft | 441 kts | 320° |
| 2026-05-06 04:01 | 36.51588 | -117.65555 | 25030 ft | 433 kts | 309° |
| 2026-05-06 04:01 | 36.53002 | -117.68810 | 25037 ft | 425 kts | 299° |
| 2026-05-06 04:02 | 36.53899 | -117.72273 | 25048 ft | 419 kts | 288° |
| 2026-05-06 04:02 | 36.54255 | -117.75789 | 25033 ft | 412 kts | 277° |
| 2026-05-06 04:02 | 36.54070 | -117.79311 | 25060 ft | 403 kts | 265° |
| 2026-05-06 04:02 | 36.53365 | -117.82629 | 25014 ft | 393 kts | 251° |
| 2026-05-06 04:03 | 36.52174 | -117.85624 | 25070 ft | 385 kts | 239° |
| 2026-05-06 04:03 | 36.50522 | -117.88276 | 25099 ft | 394 kts | 225° |
| 2026-05-06 04:03 | 36.48430 | -117.90538 | 25074 ft | 403 kts | 213° |
| 2026-05-06 04:03 | 36.46025 | -117.92271 | 25091 ft | 405 kts | 200° |
| 2026-05-06 04:04 | 36.43388 | -117.93451 | 25053 ft | 399 kts | 192° |
| 2026-05-06 04:04 | 36.40711 | -117.94375 | 25076 ft | 395 kts | 191° |
| 2026-05-06 04:04 | 36.38077 | -117.95193 | 25061 ft | 393 kts | 188° |
| 2026-05-06 04:04 | 36.35384 | -117.95837 | 25063 ft | 390 kts | 183° |
| 2026-05-06 04:05 | 36.32684 | -117.96245 | 25080 ft | 389 kts | 180° |
| 2026-05-06 04:05 | 36.30005 | -117.96394 | 25083 ft | 386 kts | 171° |
| 2026-05-06 04:05 | 36.27380 | -117.95970 | 25099 ft | 376 kts | 158° |
| 2026-05-06 04:05 | 36.24953 | -117.94943 | 25062 ft | 364 kts | 145° |
| 2026-05-06 04:06 | 36.22751 | -117.93491 | 25080 ft | 357 kts | 141° |
| 2026-05-06 04:06 | 36.20715 | -117.91808 | 25091 ft | 350 kts | 133° |
| 2026-05-06 04:06 | 36.18792 | -117.89925 | 25078 ft | 351 kts | 133° |
| 2026-05-06 04:06 | 36.16896 | -117.88056 | 25082 ft | 351 kts | 132° |
| 2026-05-06 04:07 | 36.14982 | -117.86160 | 25078 ft | 351 kts | 132° |
| 2026-05-06 04:07 | 36.13063 | -117.84267 | 25077 ft | 351 kts | 132° |
| 2026-05-06 04:07 | 36.11177 | -117.82395 | 25074 ft | 350 kts | 132° |
| 2026-05-06 04:07 | 36.09262 | -117.80500 | 25070 ft | 350 kts | 133° |
| 2026-05-06 04:08 | 36.07376 | -117.78640 | 25061 ft | 349 kts | 132° |
| 2026-05-06 04:08 | 36.05493 | -117.76791 | 25043 ft | 347 kts | 133° |
| 2026-05-06 04:08 | 36.03609 | -117.74932 | 25025 ft | 345 kts | 132° |
| 2026-05-06 04:08 | 36.01713 | -117.73074 | 25026 ft | 347 kts | 132° |
| 2026-05-06 04:09 | 35.99825 | -117.71204 | 25036 ft | 349 kts | 132° |
| 2026-05-06 04:09 | 35.97933 | -117.69340 | 24979 ft | 348 kts | 132° |
| 2026-05-06 04:09 | 35.96049 | -117.67480 | 25008 ft | 345 kts | 132° |
| 2026-05-06 04:09 | 35.94168 | -117.65620 | 25034 ft | 348 kts | 133° |
| 2026-05-06 04:10 | 35.92281 | -117.63757 | 25029 ft | 352 kts | 132° |
| 2026-05-06 04:10 | 35.90365 | -117.61864 | 24992 ft | 349 kts | 132° |
| 2026-05-06 04:10 | 35.88465 | -117.60006 | 24997 ft | 347 kts | 136° |
| 2026-05-06 04:10 | 35.86354 | -117.58520 | 25004 ft | 357 kts | 148° |
| 2026-05-06 04:11 | 35.83948 | -117.57577 | 24998 ft | 371 kts | 161° |
| 2026-05-06 04:11 | 35.81319 | -117.57240 | 24971 ft | 382 kts | 174° |
| 2026-05-06 04:11 | 35.78661 | -117.57555 | 24948 ft | 389 kts | 186° |
| 2026-05-06 04:11 | 35.76052 | -117.58526 | 24958 ft | 395 kts | 199° |
| 2026-05-06 04:12 | 35.73606 | -117.60171 | 24966 ft | 402 kts | 215° |
| 2026-05-06 04:12 | 35.71615 | -117.62453 | 24959 ft | 404 kts | 231° |
| 2026-05-06 04:12 | 35.70130 | -117.65334 | 24963 ft | 400 kts | 249° |
| 2026-05-06 04:12 | 35.69302 | -117.68559 | 24967 ft | 395 kts | 265° |
| 2026-05-06 04:13 | 35.69192 | -117.71898 | 24992 ft | 388 kts | 282° |
| 2026-05-06 04:13 | 35.69784 | -117.75063 | 24946 ft | 377 kts | 300° |
| 2026-05-06 04:13 | 35.71029 | -117.77838 | 24980 ft | 359 kts | 316° |
| 2026-05-06 04:13 | 35.72754 | -117.79943 | 24959 ft | 342 kts | 334° |
| 2026-05-06 04:14 | 35.74800 | -117.81252 | 24982 ft | 329 kts | 351° |
| 2026-05-06 04:14 | 35.77030 | -117.81711 | 24976 ft | 319 kts | 8° |
| 2026-05-06 04:14 | 35.79162 | -117.81288 | 24982 ft | 309 kts | 24° |
| 2026-05-06 04:14 | 35.81094 | -117.80162 | 25014 ft | 302 kts | 27° |
| 2026-05-06 04:15 | 35.83116 | -117.79386 | 24999 ft | 307 kts | 18° |
| 2026-05-06 04:15 | 35.85198 | -117.78748 | 24971 ft | 309 kts | 20° |
| 2026-05-06 04:15 | 35.87265 | -117.78036 | 24987 ft | 309 kts | 21° |
| 2026-05-06 04:15 | 35.89335 | -117.77296 | 25000 ft | 307 kts | 21° |
| 2026-05-06 04:16 | 35.91380 | -117.76549 | 25003 ft | 306 kts | 21° |
| 2026-05-06 04:16 | 35.93390 | -117.75804 | 24989 ft | 305 kts | 21° |
| 2026-05-06 04:16 | 35.95425 | -117.75042 | 24996 ft | 305 kts | 22° |
| 2026-05-06 04:16 | 35.97480 | -117.74268 | 25001 ft | 306 kts | 22° |
| 2026-05-06 04:17 | 35.99509 | -117.73500 | 25017 ft | 307 kts | 21° |
| 2026-05-06 04:17 | 36.01537 | -117.72732 | 24994 ft | 306 kts | 22° |
| 2026-05-06 04:17 | 36.03557 | -117.71967 | 25007 ft | 305 kts | 21° |
| 2026-05-06 04:17 | 36.05604 | -117.71188 | 25032 ft | 305 kts | 21° |
| 2026-05-06 04:18 | 36.07520 | -117.70459 | 25023 ft | 306 kts | 21° |
| 2026-05-06 04:18 | 36.09566 | -117.69681 | 25042 ft | 307 kts | 21° |
| 2026-05-06 04:18 | 36.11600 | -117.68907 | 25035 ft | 307 kts | 21° |
| 2026-05-06 04:18 | 36.13654 | -117.68124 | 25043 ft | 305 kts | 21° |
| 2026-05-06 04:19 | 36.15674 | -117.67355 | 25035 ft | 303 kts | 22° |
| 2026-05-06 04:19 | 36.17695 | -117.66584 | 25048 ft | 303 kts | 21° |
| 2026-05-06 04:19 | 36.19727 | -117.65808 | 25052 ft | 305 kts | 21° |
| 2026-05-06 04:19 | 36.21751 | -117.65035 | 25036 ft | 306 kts | 21° |
| 2026-05-06 04:20 | 36.23770 | -117.64263 | 25042 ft | 305 kts | 21° |
| 2026-05-06 04:20 | 36.25805 | -117.63486 | 25049 ft | 305 kts | 21° |
| 2026-05-06 04:20 | 36.27856 | -117.62701 | 25047 ft | 306 kts | 21° |
| 2026-05-06 04:20 | 36.29884 | -117.61925 | 25037 ft | 306 kts | 21° |
| 2026-05-06 04:21 | 36.31914 | -117.61148 | 25056 ft | 306 kts | 21° |
| 2026-05-06 04:21 | 36.33952 | -117.60368 | 25047 ft | 306 kts | 21° |
| 2026-05-06 04:21 | 36.35974 | -117.59592 | 25051 ft | 306 kts | 21° |
| 2026-05-06 04:21 | 36.38015 | -117.58810 | 25048 ft | 304 kts | 21° |
| 2026-05-06 04:22 | 36.40070 | -117.58195 | 25061 ft | 309 kts | 9° |
| 2026-05-06 04:22 | 36.42271 | -117.58369 | 25077 ft | 323 kts | 353° |
| 2026-05-06 04:22 | 36.44370 | -117.59417 | 25069 ft | 337 kts | 336° |
| 2026-05-06 04:23 | 36.47591 | -117.63863 | 25088 ft | 366 kts | 302° |
| 2026-05-06 04:23 | 36.48661 | -117.66733 | 25072 ft | 365 kts | 307° |
| 2026-05-06 04:23 | 36.49916 | -117.69463 | 25059 ft | 367 kts | 303° |
| 2026-05-06 04:23 | 36.50824 | -117.72473 | 25087 ft | 377 kts | 291° |
| 2026-05-06 04:24 | 36.51235 | -117.75706 | 25089 ft | 386 kts | 278° |
| 2026-05-06 04:24 | 36.51121 | -117.79067 | 25086 ft | 393 kts | 266° |
| 2026-05-06 04:24 | 36.50476 | -117.82367 | 25085 ft | 398 kts | 253° |
| 2026-05-06 04:24 | 36.49320 | -117.85482 | 25111 ft | 402 kts | 241° |
| 2026-05-06 04:25 | 36.47682 | -117.88319 | 25091 ft | 406 kts | 228° |
| 2026-05-06 04:25 | 36.45628 | -117.90736 | 25109 ft | 406 kts | 216° |
| 2026-05-06 04:25 | 36.43259 | -117.92622 | 25079 ft | 402 kts | 204° |
| 2026-05-06 04:25 | 36.40716 | -117.93881 | 25090 ft | 395 kts | 191° |
| 2026-05-06 04:26 | 36.38040 | -117.94511 | 25101 ft | 389 kts | 179° |
| 2026-05-06 04:26 | 36.35336 | -117.94481 | 25096 ft | 381 kts | 166° |
| 2026-05-06 04:26 | 36.32770 | -117.93805 | 25080 ft | 372 kts | 154° |
| 2026-05-06 04:26 | 36.30461 | -117.92550 | 25099 ft | 363 kts | 141° |
| 2026-05-06 04:27 | 36.28399 | -117.90778 | 25094 ft | 354 kts | 133° |
| 2026-05-06 04:27 | 36.26487 | -117.88893 | 25072 ft | 350 kts | 133° |
| 2026-05-06 04:27 | 36.24598 | -117.87028 | 25079 ft | 347 kts | 133° |
| 2026-05-06 04:27 | 36.22715 | -117.85176 | 25073 ft | 348 kts | 133° |
| 2026-05-06 04:28 | 36.20813 | -117.83289 | 25071 ft | 349 kts | 133° |
| 2026-05-06 04:28 | 36.18915 | -117.81395 | 25084 ft | 353 kts | 132° |
| 2026-05-06 04:28 | 36.17011 | -117.79492 | 25064 ft | 353 kts | 133° |
| 2026-05-06 04:28 | 36.15113 | -117.77599 | 25073 ft | 351 kts | 132° |
| 2026-05-06 04:29 | 36.13208 | -117.75699 | 25081 ft | 350 kts | 132° |
| 2026-05-06 04:29 | 36.11301 | -117.73802 | 25061 ft | 349 kts | 132° |
| 2026-05-06 04:29 | 36.09435 | -117.71949 | 25058 ft | 348 kts | 132° |
| 2026-05-06 04:29 | 36.07529 | -117.70055 | 25077 ft | 353 kts | 132° |
| 2026-05-06 04:30 | 36.05634 | -117.68162 | 25076 ft | 354 kts | 132° |
| 2026-05-06 04:30 | 36.03719 | -117.66258 | 25046 ft | 352 kts | 132° |
| 2026-05-06 04:30 | 36.01821 | -117.64381 | 25049 ft | 348 kts | 132° |
| 2026-05-06 04:30 | 35.99926 | -117.62511 | 25067 ft | 348 kts | 132° |
| 2026-05-06 04:31 | 35.97958 | -117.60733 | 25042 ft | 356 kts | 141° |
| 2026-05-06 04:31 | 35.95677 | -117.59417 | 25065 ft | 367 kts | 154° |
| 2026-05-06 04:31 | 35.93170 | -117.58687 | 25068 ft | 377 kts | 166° |
| 2026-05-06 04:31 | 35.90508 | -117.58587 | 25028 ft | 386 kts | 178° |
| 2026-05-06 04:32 | 35.87927 | -117.59242 | 25034 ft | 395 kts | 198° |
| 2026-05-06 04:32 | 35.85542 | -117.60954 | 25046 ft | 403 kts | 220° |
| 2026-05-06 04:32 | 35.83707 | -117.63570 | 25036 ft | 407 kts | 241° |
| 2026-05-06 04:32 | 35.82651 | -117.66779 | 24997 ft | 402 kts | 263° |
| 2026-05-06 04:33 | 35.82512 | -117.70121 | 24982 ft | 386 kts | 285° |
| 2026-05-06 04:33 | 35.83276 | -117.73212 | 24970 ft | 365 kts | 307° |
| 2026-05-06 04:33 | 35.84600 | -117.75800 | 24988 ft | 360 kts | 315° |
| 2026-05-06 04:33 | 35.86325 | -117.77987 | 25037 ft | 342 kts | 332° |
| 2026-05-06 04:34 | 35.88354 | -117.79355 | 25059 ft | 329 kts | 349° |
| 2026-05-06 04:34 | 35.90530 | -117.79867 | 25055 ft | 316 kts | 6° |
| 2026-05-06 04:34 | 35.92695 | -117.79604 | 25066 ft | 309 kts | 20° |
| 2026-05-06 04:34 | 35.94754 | -117.78865 | 25074 ft | 309 kts | 21° |
| 2026-05-06 04:35 | 35.96821 | -117.78135 | 25047 ft | 309 kts | 21° |
| 2026-05-06 04:35 | 35.98883 | -117.77412 | 25033 ft | 307 kts | 21° |
| 2026-05-06 04:35 | 36.00941 | -117.76689 | 25030 ft | 304 kts | 21° |
| 2026-05-06 04:35 | 36.02959 | -117.75983 | 25062 ft | 303 kts | 21° |
| 2026-05-06 04:36 | 36.05017 | -117.75262 | 25055 ft | 306 kts | 20° |
| 2026-05-06 04:36 | 36.07053 | -117.74550 | 25074 ft | 308 kts | 20° |
| 2026-05-06 04:36 | 36.09131 | -117.73823 | 25057 ft | 309 kts | 20° |
| 2026-05-06 04:36 | 36.11179 | -117.73106 | 25083 ft | 303 kts | 20° |
| 2026-05-06 04:37 | 36.13199 | -117.72403 | 25050 ft | 293 kts | 20° |
| 2026-05-06 04:37 | 36.15136 | -117.71724 | 25063 ft | 286 kts | 20° |
| 2026-05-06 04:37 | 36.17052 | -117.71052 | 25091 ft | 288 kts | 21° |
| 2026-05-06 04:37 | 36.19012 | -117.70363 | 25085 ft | 293 kts | 20° |
| 2026-05-06 04:38 | 36.20987 | -117.69669 | 25077 ft | 296 kts | 20° |
| 2026-05-06 04:38 | 36.22952 | -117.68980 | 25084 ft | 295 kts | 20° |
| 2026-05-06 04:38 | 36.24927 | -117.68288 | 25071 ft | 293 kts | 20° |
| 2026-05-06 04:38 | 36.26888 | -117.67600 | 25048 ft | 286 kts | 20° |
| 2026-05-06 04:39 | 36.28743 | -117.66951 | 25050 ft | 271 kts | 20° |
| 2026-05-06 04:39 | 36.30502 | -117.66334 | 25044 ft | 258 kts | 20° |
| 2026-05-06 04:39 | 36.32201 | -117.65735 | 25066 ft | 254 kts | 20° |
| 2026-05-06 04:39 | 36.33926 | -117.65124 | 25104 ft | 263 kts | 21° |
| 2026-05-06 04:40 | 36.35725 | -117.64486 | 25090 ft | 270 kts | 20° |
| 2026-05-06 04:40 | 36.37536 | -117.63850 | 25085 ft | 269 kts | 20° |
| 2026-05-06 04:40 | 36.39325 | -117.63219 | 25083 ft | 265 kts | 20° |
| 2026-05-06 04:40 | 36.41068 | -117.62607 | 25088 ft | 262 kts | 20° |
| 2026-05-06 04:41 | 36.42849 | -117.62056 | 25088 ft | 267 kts | 11° |
| 2026-05-06 04:41 | 36.44744 | -117.62213 | 25128 ft | 281 kts | 352° |
| 2026-05-06 04:41 | 36.46365 | -117.63700 | 24822 ft | 328 kts | 300° |
| 2026-05-06 04:41 | 36.46692 | -117.66638 | 24425 ft | 367 kts | 262° |
| 2026-05-06 04:42 | 36.45931 | -117.69692 | 23883 ft | 366 kts | 268° |
| 2026-05-06 04:42 | 36.45627 | -117.72701 | 24189 ft | 334 kts | 269° |
| 2026-05-06 04:42 | 36.45398 | -117.75462 | 24449 ft | 319 kts | 276° |
| 2026-05-06 04:42 | 36.45169 | -117.78199 | 24775 ft | 325 kts | 255° |
| 2026-05-06 04:43 | 36.44112 | -117.80704 | 25140 ft | 331 kts | 229° |
| 2026-05-06 04:43 | 36.42333 | -117.82557 | 25130 ft | 337 kts | 202° |
| 2026-05-06 04:43 | 36.40126 | -117.83385 | 25188 ft | 338 kts | 176° |
| 2026-05-06 04:43 | 36.37773 | -117.83088 | 25161 ft | 339 kts | 152° |
| 2026-05-06 04:44 | 36.35762 | -117.81731 | 25117 ft | 320 kts | 127° |
| 2026-05-06 04:44 | 36.34484 | -117.79686 | 25120 ft | 292 kts | 103° |
| 2026-05-06 04:44 | 36.34028 | -117.77346 | 25114 ft | 274 kts | 89° |
| 2026-05-06 04:44 | 36.33868 | -117.74991 | 25085 ft | 275 kts | 85° |
| 2026-05-06 04:45 | 36.34137 | -117.72711 | 25110 ft | 263 kts | 62° |
| 2026-05-06 04:45 | 36.35141 | -117.70842 | 25120 ft | 263 kts | 43° |
| 2026-05-06 04:45 | 36.36665 | -117.69586 | 25108 ft | 267 kts | 25° |
| 2026-05-06 04:45 | 36.38367 | -117.68700 | 25085 ft | 265 kts | 29° |
| 2026-05-06 04:46 | 36.39980 | -117.67633 | 25075 ft | 261 kts | 32° |
| 2026-05-06 04:46 | 36.41536 | -117.66476 | 25074 ft | 259 kts | 34° |
| 2026-05-06 04:46 | 36.43058 | -117.65263 | 25070 ft | 259 kts | 34° |
| 2026-05-06 04:46 | 36.44691 | -117.64310 | 25074 ft | 264 kts | 16° |
| 2026-05-06 04:47 | 36.46559 | -117.64176 | 25113 ft | 278 kts | 358° |
| 2026-05-06 04:47 | 36.48443 | -117.64928 | 25106 ft | 296 kts | 339° |
| 2026-05-06 04:47 | 36.50107 | -117.66529 | 25084 ft | 313 kts | 320° |
| 2026-05-06 04:47 | 36.51321 | -117.68851 | 25090 ft | 326 kts | 300° |
| 2026-05-06 04:48 | 36.51904 | -117.71617 | 25109 ft | 340 kts | 281° |
| 2026-05-06 04:48 | 36.51861 | -117.74566 | 25111 ft | 348 kts | 271° |
| 2026-05-06 04:48 | 36.51666 | -117.77553 | 25083 ft | 346 kts | 274° |
| 2026-05-06 04:48 | 36.51407 | -117.80553 | 25082 ft | 350 kts | 259° |
| 2026-05-06 04:49 | 36.50501 | -117.83365 | 25113 ft | 358 kts | 240° |
| 2026-05-06 04:49 | 36.48933 | -117.85811 | 25128 ft | 366 kts | 221° |
| 2026-05-06 04:49 | 36.46866 | -117.87615 | 25131 ft | 365 kts | 202° |
| 2026-05-06 04:49 | 36.44506 | -117.88613 | 25125 ft | 355 kts | 183° |
| 2026-05-06 04:50 | 36.42079 | -117.88838 | 25104 ft | 343 kts | 169° |
| 2026-05-06 04:50 | 36.39723 | -117.88663 | 25084 ft | 341 kts | 175° |
| 2026-05-06 04:50 | 36.37337 | -117.88821 | 25115 ft | 344 kts | 176° |
| 2026-05-06 04:50 | 36.34945 | -117.88959 | 25089 ft | 347 kts | 176° |
| 2026-05-06 04:51 | 36.32527 | -117.89066 | 25094 ft | 347 kts | 174° |
| 2026-05-06 04:51 | 36.30141 | -117.89072 | 25089 ft | 345 kts | 173° |
| 2026-05-06 04:51 | 36.27712 | -117.89070 | 25104 ft | 345 kts | 173° |
| 2026-05-06 04:51 | 36.25335 | -117.89066 | 25083 ft | 345 kts | 173° |
| 2026-05-06 04:52 | 36.22924 | -117.89062 | 25106 ft | 343 kts | 173° |
| 2026-05-06 04:52 | 36.20549 | -117.89058 | 25090 ft | 342 kts | 173° |
| 2026-05-06 04:52 | 36.18182 | -117.89053 | 25075 ft | 341 kts | 173° |
| 2026-05-06 04:52 | 36.15813 | -117.89048 | 25094 ft | 342 kts | 173° |
| 2026-05-06 04:53 | 36.13402 | -117.89042 | 25083 ft | 343 kts | 173° |
| 2026-05-06 04:53 | 36.11018 | -117.89037 | 25089 ft | 345 kts | 172° |
| 2026-05-06 04:53 | 36.08635 | -117.89031 | 25077 ft | 345 kts | 173° |
| 2026-05-06 04:53 | 36.06218 | -117.89030 | 25096 ft | 343 kts | 173° |
| 2026-05-06 04:54 | 36.03850 | -117.89024 | 25085 ft | 342 kts | 173° |
| 2026-05-06 04:54 | 36.01458 | -117.89018 | 25104 ft | 342 kts | 172° |
| 2026-05-06 04:54 | 35.99083 | -117.89012 | 25089 ft | 345 kts | 172° |
| 2026-05-06 04:54 | 35.96694 | -117.89008 | 25100 ft | 344 kts | 173° |
| 2026-05-06 04:55 | 35.94288 | -117.89003 | 25066 ft | 342 kts | 173° |
| 2026-05-06 04:55 | 35.91930 | -117.88999 | 25080 ft | 340 kts | 173° |
| 2026-05-06 04:55 | 35.89536 | -117.88993 | 25083 ft | 343 kts | 172° |
| 2026-05-06 04:55 | 35.87135 | -117.88988 | 25086 ft | 343 kts | 173° |
| 2026-05-06 04:56 | 35.84759 | -117.88982 | 25037 ft | 344 kts | 172° |
| 2026-05-06 04:56 | 35.82359 | -117.88979 | 25033 ft | 342 kts | 172° |
| 2026-05-06 04:56 | 35.79959 | -117.88975 | 25023 ft | 340 kts | 173° |
| 2026-05-06 04:56 | 35.77632 | -117.88924 | 25048 ft | 334 kts | 166° |
| 2026-05-06 04:57 | 35.75351 | -117.88418 | 25075 ft | 329 kts | 153° |
| 2026-05-06 04:57 | 35.73192 | -117.87444 | 25024 ft | 325 kts | 143° |
| 2026-05-06 04:57 | 35.71251 | -117.86082 | 24976 ft | 314 kts | 132° |
| 2026-05-06 04:57 | 35.69604 | -117.84409 | 24998 ft | 300 kts | 122° |
| 2026-05-06 04:58 | 35.68279 | -117.82485 | 24997 ft | 291 kts | 114° |
| 2026-05-06 04:58 | 35.67252 | -117.80363 | 25002 ft | 289 kts | 108° |
| 2026-05-06 04:58 | 35.66511 | -117.78121 | 24979 ft | 284 kts | 101° |
| 2026-05-06 04:58 | 35.66054 | -117.75789 | 24994 ft | 276 kts | 91° |
| 2026-05-06 04:59 | 35.65850 | -117.73473 | 24961 ft | 269 kts | 83° |
| 2026-05-06 04:59 | 35.65919 | -117.71215 | 24981 ft | 263 kts | 75° |
| 2026-05-06 04:59 | 35.66260 | -117.68989 | 24978 ft | 262 kts | 71° |
| 2026-05-06 04:59 | 35.66815 | -117.66860 | 24981 ft | 262 kts | 65° |
| 2026-05-06 05:00 | 35.67582 | -117.64844 | 24973 ft | 261 kts | 58° |
| 2026-05-06 05:00 | 35.68552 | -117.62992 | 24982 ft | 260 kts | 51° |
| 2026-05-06 05:00 | 35.69716 | -117.61296 | 24950 ft | 258 kts | 45° |
| 2026-05-06 05:00 | 35.71029 | -117.59813 | 24985 ft | 257 kts | 39° |
| 2026-05-06 05:01 | 35.72529 | -117.58548 | 25013 ft | 260 kts | 34° |
| 2026-05-06 05:01 | 35.74151 | -117.57524 | 24979 ft | 265 kts | 27° |
| 2026-05-06 05:01 | 35.75887 | -117.56741 | 24968 ft | 267 kts | 19° |
| 2026-05-06 05:01 | 35.77706 | -117.56250 | 24979 ft | 271 kts | 12° |
| 2026-05-06 05:02 | 35.79600 | -117.56081 | 25003 ft | 275 kts | 8° |
| 2026-05-06 05:02 | 35.81531 | -117.56074 | 24963 ft | 276 kts | 7° |
| 2026-05-06 05:02 | 35.83425 | -117.56087 | 24974 ft | 274 kts | 7° |
| 2026-05-06 05:02 | 35.85337 | -117.56089 | 24972 ft | 275 kts | 7° |
| 2026-05-06 05:03 | 35.87265 | -117.56090 | 25002 ft | 274 kts | 7° |
| 2026-05-06 05:03 | 35.89164 | -117.56087 | 25001 ft | 273 kts | 7° |
| 2026-05-06 05:03 | 35.91066 | -117.56085 | 25053 ft | 274 kts | 6° |
| 2026-05-06 05:03 | 35.92985 | -117.56081 | 25053 ft | 276 kts | 7° |
| 2026-05-06 05:04 | 35.94912 | -117.56078 | 25068 ft | 276 kts | 7° |
| 2026-05-06 05:04 | 35.96838 | -117.56076 | 25041 ft | 275 kts | 7° |
| 2026-05-06 05:04 | 35.98737 | -117.56072 | 25045 ft | 274 kts | 7° |
| 2026-05-06 05:04 | 36.00628 | -117.56068 | 25065 ft | 272 kts | 7° |
| 2026-05-06 05:05 | 36.02531 | -117.56065 | 25050 ft | 272 kts | 7° |
| 2026-05-06 05:05 | 36.04424 | -117.56059 | 25069 ft | 274 kts | 7° |
| 2026-05-06 05:05 | 36.06353 | -117.56055 | 25057 ft | 275 kts | 7° |
| 2026-05-06 05:05 | 36.08260 | -117.56051 | 25064 ft | 273 kts | 7° |
| 2026-05-06 05:06 | 36.10172 | -117.56047 | 25067 ft | 274 kts | 7° |
| 2026-05-06 05:06 | 36.12098 | -117.56042 | 25075 ft | 273 kts | 6° |
| 2026-05-06 05:06 | 36.14006 | -117.56039 | 25078 ft | 274 kts | 6° |
| 2026-05-06 05:06 | 36.15915 | -117.56035 | 25070 ft | 275 kts | 6° |
| 2026-05-06 05:07 | 36.17822 | -117.56031 | 25073 ft | 274 kts | 6° |
| 2026-05-06 05:07 | 36.19730 | -117.56028 | 25064 ft | 273 kts | 7° |
| 2026-05-06 05:07 | 36.21625 | -117.56024 | 25075 ft | 272 kts | 7° |
| 2026-05-06 05:07 | 36.23508 | -117.56020 | 25077 ft | 273 kts | 7° |
| 2026-05-06 05:08 | 36.25408 | -117.56015 | 25091 ft | 274 kts | 6° |
| 2026-05-06 05:08 | 36.27342 | -117.56010 | 25089 ft | 274 kts | 6° |
| 2026-05-06 05:08 | 36.29232 | -117.56007 | 25084 ft | 273 kts | 6° |
| 2026-05-06 05:08 | 36.31124 | -117.56003 | 25092 ft | 274 kts | 6° |
| 2026-05-06 05:09 | 36.33046 | -117.56024 | 25092 ft | 277 kts | 1° |
| 2026-05-06 05:09 | 36.34967 | -117.56258 | 25088 ft | 279 kts | 359° |
| 2026-05-06 05:09 | 36.36908 | -117.56792 | 25108 ft | 284 kts | 351° |
| 2026-05-06 05:09 | 36.38754 | -117.57703 | 25072 ft | 290 kts | 341° |
| 2026-05-06 05:10 | 36.40389 | -117.58881 | 25086 ft | 296 kts | 334° |
| 2026-05-06 05:10 | 36.42035 | -117.60478 | 25090 ft | 304 kts | 324° |
| 2026-05-06 05:10 | 36.43474 | -117.62429 | 25085 ft | 313 kts | 314° |
| 2026-05-06 05:10 | 36.44659 | -117.64716 | 25108 ft | 322 kts | 305° |
| 2026-05-06 05:11 | 36.45578 | -117.67309 | 25092 ft | 330 kts | 295° |
| 2026-05-06 05:11 | 36.46111 | -117.70108 | 25100 ft | 338 kts | 283° |
| 2026-05-06 05:11 | 36.46262 | -117.73030 | 25110 ft | 345 kts | 273° |
| 2026-05-06 05:11 | 36.45966 | -117.75999 | 25110 ft | 352 kts | 261° |
| 2026-05-06 05:12 | 36.45254 | -117.78914 | 25094 ft | 356 kts | 249° |
| 2026-05-06 05:12 | 36.44089 | -117.81628 | 25124 ft | 359 kts | 237° |
| 2026-05-06 05:12 | 36.42527 | -117.84066 | 25079 ft | 362 kts | 224° |
| 2026-05-06 05:12 | 36.40644 | -117.86089 | 25107 ft | 361 kts | 213° |
| 2026-05-06 05:13 | 36.38476 | -117.87678 | 25103 ft | 359 kts | 200° |
| 2026-05-06 05:13 | 36.36167 | -117.88733 | 25100 ft | 354 kts | 189° |
| 2026-05-06 05:13 | 36.33748 | -117.89267 | 25104 ft | 348 kts | 177° |
| 2026-05-06 05:13 | 36.31352 | -117.89385 | 25089 ft | 344 kts | 171° |
| 2026-05-06 05:14 | 36.28966 | -117.89230 | 25108 ft | 343 kts | 171° |
| 2026-05-06 05:14 | 36.26573 | -117.89150 | 25102 ft | 345 kts | 172° |
| 2026-05-06 05:14 | 36.24181 | -117.89108 | 25093 ft | 344 kts | 173° |
| 2026-05-06 05:14 | 36.21772 | -117.89082 | 25084 ft | 343 kts | 172° |
| 2026-05-06 05:15 | 36.19393 | -117.89068 | 25094 ft | 342 kts | 172° |
| 2026-05-06 05:15 | 36.17012 | -117.89057 | 25075 ft | 341 kts | 173° |
| 2026-05-06 05:15 | 36.14647 | -117.89048 | 25083 ft | 341 kts | 173° |
| 2026-05-06 05:15 | 36.12255 | -117.89039 | 25098 ft | 349 kts | 173° |
| 2026-05-06 05:16 | 36.09758 | -117.89027 | 25137 ft | 372 kts | 173° |
| 2026-05-06 05:16 | 36.07087 | -117.89019 | 25106 ft | 385 kts | 173° |
| 2026-05-06 05:16 | 36.04429 | -117.89020 | 25092 ft | 381 kts | 174° |
| 2026-05-06 05:16 | 36.01813 | -117.89017 | 25075 ft | 374 kts | 174° |
| 2026-05-06 05:17 | 35.99201 | -117.89014 | 25083 ft | 373 kts | 173° |
| 2026-05-06 05:17 | 35.96608 | -117.89008 | 25092 ft | 375 kts | 173° |
| 2026-05-06 05:17 | 35.93996 | -117.89002 | 25064 ft | 377 kts | 174° |
| 2026-05-06 05:17 | 35.91387 | -117.88997 | 25090 ft | 376 kts | 174° |
| 2026-05-06 05:18 | 35.88764 | -117.88991 | 25066 ft | 374 kts | 174° |
| 2026-05-06 05:18 | 35.86139 | -117.88986 | 25066 ft | 375 kts | 173° |
| 2026-05-06 05:18 | 35.83524 | -117.88980 | 25038 ft | 377 kts | 173° |
| 2026-05-06 05:18 | 35.80897 | -117.88975 | 25015 ft | 376 kts | 173° |
| 2026-05-06 05:19 | 35.78295 | -117.88975 | 25058 ft | 372 kts | 170° |
| 2026-05-06 05:19 | 35.75730 | -117.88563 | 25059 ft | 366 kts | 156° |
| 2026-05-06 05:19 | 35.73409 | -117.87423 | 25033 ft | 353 kts | 139° |
| 2026-05-06 05:19 | 35.71532 | -117.85590 | 25009 ft | 334 kts | 122° |
| 2026-05-06 05:20 | 35.70290 | -117.83311 | 25036 ft | 316 kts | 104° |
| 2026-05-06 05:20 | 35.69726 | -117.80772 | 25018 ft | 304 kts | 88° |
| 2026-05-06 05:20 | 35.69740 | -117.78193 | 24998 ft | 302 kts | 84° |
| 2026-05-06 05:20 | 35.69613 | -117.75586 | 24996 ft | 308 kts | 90° |
| 2026-05-06 05:21 | 35.69279 | -117.72988 | 24969 ft | 309 kts | 93° |
| 2026-05-06 05:21 | 35.68846 | -117.70401 | 24984 ft | 311 kts | 95° |
| 2026-05-06 05:21 | 35.68352 | -117.67810 | 24990 ft | 313 kts | 95° |
| 2026-05-06 05:21 | 35.67871 | -117.65188 | 24987 ft | 313 kts | 95° |
| 2026-05-06 05:22 | 35.67429 | -117.62598 | 24965 ft | 307 kts | 88° |
| 2026-05-06 05:22 | 35.67600 | -117.60101 | 25002 ft | 290 kts | 66° |
| 2026-05-06 05:22 | 35.68619 | -117.58013 | 25036 ft | 289 kts | 44° |
| 2026-05-06 05:22 | 35.70311 | -117.56577 | 25067 ft | 298 kts | 29° |
| 2026-05-06 05:23 | 35.72255 | -117.55634 | 25040 ft | 301 kts | 20° |
| 2026-05-06 05:23 | 35.73600 | -117.55211 | 25032 ft | 299 kts | 17° |